createdAt,value
2023-03-03T00:00:21.051Z,108.90
2023-03-03T00:03:10.624Z,97.50
2023-03-03T00:05:39.406Z,88.10
2023-03-03T00:08:07.143Z,96.10
2023-03-03T00:10:35.317Z,92.00
2023-03-03T00:13:03.311Z,95.40
2023-03-03T00:15:31.454Z,94.30
2023-03-03T00:17:59.626Z,85.50
2023-03-03T00:20:33.130Z,94.20
2023-03-03T00:25:53.802Z,94.20
2023-03-03T00:28:46.276Z,102.40
2023-03-03T00:31:20.380Z,91.90
2023-03-03T00:33:56.929Z,101.60
2023-03-03T00:36:42.023Z,108.80
2023-03-03T00:39:35.599Z,94.90
2023-03-03T00:42:14.757Z,103.50
2023-03-03T00:44:46.607Z,110.10
2023-03-03T00:47:31.558Z,111.40
2023-03-03T00:50:05.807Z,104.80
2023-03-03T00:52:37.685Z,108.00
2023-03-03T00:55:06.430Z,101.80
2023-03-03T00:57:34.603Z,102.80
2023-03-03T01:00:02.558Z,98.80
2023-03-03T01:02:31.347Z,101.20
2023-03-03T01:04:59.103Z,99.50
2023-03-03T01:07:26.860Z,92.40
2023-03-03T01:09:55.718Z,95.70
2023-03-03T01:12:24.294Z,110.40
2023-03-03T01:14:54.766Z,96.30
2023-03-03T01:17:22.737Z,104.40
2023-03-03T01:19:50.463Z,90.00
2023-03-03T01:22:18.182Z,93.10
2023-03-03T01:24:45.892Z,100.70
2023-03-03T01:27:13.652Z,121.50
2023-03-03T01:29:41.406Z,95.10
2023-03-03T01:32:09.123Z,99.20
2023-03-03T01:34:36.870Z,107.90
2023-03-03T01:37:04.655Z,134.50
2023-03-03T01:39:32.446Z,114.30
2023-03-03T01:42:00.493Z,116.30
2023-03-03T01:44:28.227Z,108.50
2023-03-03T01:47:23.654Z,193.30
2023-03-03T01:50:12.627Z,113.60
2023-03-03T01:52:44.589Z,198.50
2023-03-03T01:55:17.288Z,139.30
2023-03-03T01:57:52.415Z,241.80
2023-03-03T02:00:20.199Z,193.10
2023-03-03T02:02:48.815Z,210.90
2023-03-03T02:05:16.745Z,142.90
2023-03-03T02:07:45.176Z,192.80
2023-03-03T02:10:17.489Z,119.30
2023-03-03T02:12:50.932Z,110.10
2023-03-03T02:18:01.960Z,102.90
2023-03-03T02:20:32.749Z,102.70
2023-03-03T02:23:09.919Z,101.70
2023-03-03T02:25:48.524Z,108.00
2023-03-03T02:28:16.605Z,101.60
2023-03-03T02:30:44.391Z,92.00
2023-03-03T02:33:12.220Z,93.90
2023-03-03T02:35:41.497Z,100.20
2023-03-03T02:38:27.737Z,94.60
2023-03-03T02:41:18.745Z,96.00
2023-03-03T02:43:57.501Z,98.20
2023-03-03T02:46:26.738Z,96.10
2023-03-03T02:48:54.569Z,115.70
2023-03-03T02:51:22.343Z,113.50
2023-03-03T02:53:50.077Z,145.40
2023-03-03T02:56:18.640Z,329.40
2023-03-03T02:58:46.353Z,180.70
2023-03-03T03:01:14.222Z,119.60
2023-03-03T03:03:43.736Z,130.40
2023-03-03T03:06:11.627Z,141.80
2023-03-03T03:08:39.652Z,173.30
2023-03-03T03:11:07.654Z,207.20
2023-03-03T03:13:35.547Z,171.80
2023-03-03T03:16:03.489Z,106.60
2023-03-03T03:18:31.243Z,105.30
2023-03-03T03:21:07.375Z,142.50
2023-03-03T03:23:36.187Z,209.70
2023-03-03T03:26:05.640Z,170.40
2023-03-03T03:28:33.991Z,166.60
2023-03-03T03:31:04.496Z,114.80
2023-03-03T03:33:32.309Z,129.20
2023-03-03T03:36:01.149Z,104.40
2023-03-03T03:38:29.940Z,101.20
2023-03-03T03:40:57.819Z,90.20
2023-03-03T03:43:26.690Z,110.40
2023-03-03T03:45:54.707Z,138.00
2023-03-03T03:48:22.605Z,98.40
2023-03-03T03:50:51.044Z,89.10
2023-03-03T03:53:19.405Z,85.60
2023-03-03T03:55:47.688Z,92.50
2023-03-03T03:58:17.505Z,95.80
2023-03-03T04:00:48.391Z,102.20
2023-03-03T04:03:16.862Z,88.50
2023-03-03T04:05:45.860Z,83.00
2023-03-03T04:08:13.674Z,95.10
2023-03-03T04:10:42.849Z,86.30
2023-03-03T04:13:10.719Z,89.20
2023-03-03T04:15:38.627Z,94.10
2023-03-03T04:18:06.585Z,99.70
2023-03-03T04:20:34.307Z,76.80
2023-03-03T04:23:06.705Z,84.90
2023-03-03T04:25:35.025Z,77.80
2023-03-03T04:28:05.531Z,64.50
2023-03-03T04:30:33.916Z,69.80
2023-03-03T04:33:02.079Z,70.80
2023-03-03T04:35:29.942Z,68.50
2023-03-03T04:37:58.572Z,65.10
2023-03-03T04:40:26.378Z,93.90
2023-03-03T04:42:54.147Z,60.60
2023-03-03T04:45:22.223Z,62.20
2023-03-03T04:47:50.609Z,75.00
2023-03-03T04:50:18.870Z,66.10
2023-03-03T04:52:46.598Z,94.50
2023-03-03T04:55:16.564Z,65.30
2023-03-03T04:57:45.531Z,67.60
2023-03-03T05:00:15.967Z,60.20
2023-03-03T05:02:43.781Z,56.50
2023-03-03T05:05:13.532Z,60.20
2023-03-03T05:07:41.357Z,67.30
2023-03-03T05:10:10.253Z,66.40
2023-03-03T05:12:38.092Z,66.10
2023-03-03T05:15:07.039Z,68.40
2023-03-03T05:17:34.877Z,60.00
2023-03-03T05:20:05.564Z,62.90
2023-03-03T05:22:33.266Z,67.30
2023-03-03T05:25:00.975Z,71.90
2023-03-03T05:27:28.751Z,81.20
2023-03-03T05:29:56.701Z,60.90
2023-03-03T05:32:24.460Z,63.20
2023-03-03T05:34:52.557Z,64.50
2023-03-03T05:37:20.289Z,64.90
2023-03-03T05:39:48.040Z,75.20
2023-03-03T05:42:15.828Z,64.80
2023-03-03T05:44:43.621Z,69.40
2023-03-03T05:47:11.329Z,71.80
2023-03-03T05:49:39.176Z,73.40
2023-03-03T05:52:07.002Z,55.60
2023-03-03T05:54:35.776Z,66.90
2023-03-03T05:57:03.688Z,62.60
2023-03-03T05:59:31.582Z,68.90
2023-03-03T06:01:59.307Z,74.30
2023-03-03T06:04:27.218Z,71.10
2023-03-03T06:06:54.972Z,67.10
2023-03-03T06:09:22.752Z,58.40
2023-03-03T06:11:52.783Z,84.40
2023-03-03T06:14:21.055Z,76.70
2023-03-03T06:16:48.762Z,85.50
2023-03-03T06:19:16.815Z,80.30
2023-03-03T06:21:44.574Z,93.90
2023-03-03T06:24:12.317Z,90.10
2023-03-03T06:26:40.068Z,110.00
2023-03-03T06:29:07.990Z,95.50
2023-03-03T06:31:36.699Z,84.10
2023-03-03T06:34:04.421Z,92.40
2023-03-03T06:36:32.165Z,80.40
2023-03-03T06:39:00.969Z,87.70
2023-03-03T06:41:28.702Z,82.00
2023-03-03T06:43:58.331Z,90.50
2023-03-03T06:46:27.428Z,78.50
2023-03-03T06:48:55.147Z,75.60
2023-03-03T06:51:39.884Z,91.80
2023-03-03T06:54:16.738Z,101.90
2023-03-03T06:56:45.548Z,91.50
2023-03-03T06:59:16.603Z,90.20
2023-03-03T07:01:46.235Z,83.50
2023-03-03T07:04:25.759Z,87.60
2023-03-03T07:06:54.186Z,83.60
2023-03-03T07:09:28.101Z,73.50
2023-03-03T07:12:18.047Z,71.20
2023-03-03T07:14:51.457Z,70.20
2023-03-03T07:17:20.888Z,80.70
2023-03-03T07:19:49.778Z,78.50
2023-03-03T07:22:18.904Z,64.20
2023-03-03T07:24:52.808Z,66.30
2023-03-03T07:27:29.029Z,81.80
2023-03-03T07:30:28.932Z,74.90
2023-03-03T07:32:59.395Z,71.80
2023-03-03T07:35:47.573Z,66.60
2023-03-03T07:38:31.500Z,58.60
2023-03-03T07:41:01.728Z,77.50
2023-03-03T07:43:33.863Z,79.90
2023-03-03T07:46:03.679Z,72.70
2023-03-03T07:48:36.477Z,69.60
2023-03-03T07:51:12.110Z,88.50
2023-03-03T07:53:39.915Z,67.90
2023-03-03T07:56:31.919Z,62.20
2023-03-03T07:59:00.080Z,74.00
2023-03-03T08:01:44.858Z,60.50
2023-03-03T08:04:20.863Z,62.40
2023-03-03T08:06:50.014Z,65.90
2023-03-03T08:09:17.737Z,60.70
2023-03-03T08:11:54.539Z,55.50
2023-03-03T08:14:29.795Z,60.10
2023-03-03T08:17:00.628Z,52.50
2023-03-03T08:19:31.850Z,36.30
2023-03-03T08:22:13.873Z,36.50
2023-03-03T08:24:42.539Z,40.40
2023-03-03T08:29:42.639Z,31.90
2023-03-03T08:32:10.500Z,28.40
2023-03-03T08:34:38.341Z,57.70
2023-03-03T08:37:06.558Z,56.50
2023-03-03T08:39:34.279Z,66.50
2023-03-03T08:42:02.255Z,84.00
2023-03-03T08:44:30.029Z,58.00
2023-03-03T08:46:57.747Z,49.20
2023-03-03T08:49:25.475Z,63.30
2023-03-03T08:51:54.618Z,52.40
2023-03-03T08:54:22.433Z,145.80
2023-03-03T08:56:50.176Z,55.30
2023-03-03T08:59:20.495Z,66.30
2023-03-03T09:01:48.842Z,55.80
2023-03-03T09:04:16.899Z,69.00
2023-03-03T09:06:45.187Z,62.50
2023-03-03T09:09:13.196Z,51.00
2023-03-03T09:11:43.526Z,47.30
2023-03-03T09:14:14.829Z,48.10
2023-03-03T09:16:51.732Z,47.30
2023-03-03T09:19:37.580Z,35.90
2023-03-03T09:22:20.829Z,40.20
2023-03-03T09:24:50.762Z,49.90
2023-03-03T09:27:37.080Z,42.00
2023-03-03T09:30:32.446Z,30.90
2023-03-03T09:33:00.350Z,48.80
2023-03-03T09:35:46.048Z,34.90
2023-03-03T09:38:32.069Z,56.50
2023-03-03T09:41:05.658Z,50.10
2023-03-03T09:46:46.040Z,41.30
2023-03-03T09:49:35.136Z,39.20
2023-03-03T09:52:22.478Z,36.30
2023-03-03T09:55:06.207Z,28.00
2023-03-03T10:03:46.680Z,33.80
2023-03-03T10:06:43.473Z,27.50
2023-03-03T10:09:27.186Z,35.00
2023-03-03T10:12:27.126Z,30.20
2023-03-03T10:15:14.723Z,42.20
2023-03-03T10:17:55.903Z,30.40
2023-03-03T10:20:23.599Z,25.20
2023-03-03T10:23:23.650Z,27.70
2023-03-03T10:26:08.250Z,30.70
2023-03-03T10:28:57.897Z,25.60
2023-03-03T10:31:41.589Z,29.90
2023-03-03T10:34:21.105Z,32.10
2023-03-03T10:37:19.817Z,27.40
2023-03-03T10:40:06.914Z,24.20
2023-03-03T10:42:53.786Z,31.50
2023-03-03T10:45:36.295Z,27.80
2023-03-03T10:48:39.363Z,23.30
2023-03-03T10:51:26.234Z,26.90
2023-03-03T10:54:09.936Z,31.20
2023-03-03T10:56:52.947Z,35.30
2023-03-03T11:02:25.608Z,35.30
2023-03-03T11:05:12.077Z,31.10
2023-03-03T11:07:49.306Z,26.80
2023-03-03T11:10:48.905Z,41.70
2023-03-03T11:13:25.073Z,35.80
2023-03-03T11:16:09.932Z,30.20
2023-03-03T11:19:00.668Z,28.70
2023-03-03T11:21:41.597Z,32.00
2023-03-03T11:24:19.575Z,29.50
2023-03-03T11:27:03.603Z,28.90
2023-03-03T11:29:47.451Z,29.00
2023-03-03T11:32:33.786Z,28.90
2023-03-03T11:35:29.158Z,28.30
2023-03-03T11:38:16.218Z,30.10
2023-03-03T11:40:50.897Z,33.60
2023-03-03T11:43:44.616Z,34.60
2023-03-03T11:46:18.367Z,29.60
2023-03-03T11:49:15.597Z,33.50
2023-03-03T11:51:43.263Z,34.60
2023-03-03T11:54:32.761Z,31.50
2023-03-03T11:57:16.470Z,33.60
2023-03-03T12:00:09.279Z,38.80
2023-03-03T12:02:44.109Z,41.90
2023-03-03T12:05:31.136Z,31.30
2023-03-03T12:08:14.877Z,31.20
2023-03-03T12:10:59.521Z,35.90
2023-03-03T12:13:43.870Z,38.20
2023-03-03T12:16:24.139Z,30.60
2023-03-03T12:19:23.865Z,44.70
2023-03-03T12:22:14.975Z,32.30
2023-03-03T12:25:14.685Z,30.80
2023-03-03T12:27:42.998Z,35.90
2023-03-03T12:30:20.047Z,29.20
2023-03-03T12:33:00.365Z,31.50
2023-03-03T12:36:00.233Z,28.80
2023-03-03T12:38:44.037Z,32.10
2023-03-03T12:41:21.068Z,33.30
2023-03-03T12:44:14.224Z,35.60
2023-03-03T12:47:09.862Z,33.00
2023-03-03T12:50:06.646Z,37.60
2023-03-03T12:52:57.165Z,32.90
2023-03-03T12:55:44.502Z,28.60
2023-03-03T12:58:37.746Z,45.20
2023-03-03T13:01:08.309Z,26.60
2023-03-03T13:03:55.523Z,29.20
2023-03-03T13:06:31.920Z,31.80
2023-03-03T13:09:08.455Z,35.80
2023-03-03T13:11:52.409Z,28.40
2023-03-03T13:14:43.284Z,27.60
2023-03-03T13:17:33.421Z,30.60
2023-03-03T13:20:05.815Z,33.50
2023-03-03T13:23:05.502Z,34.30
2023-03-03T13:25:47.719Z,37.50
2023-03-03T13:28:31.221Z,32.00
2023-03-03T13:31:08.484Z,33.90
2023-03-03T13:33:37.404Z,30.60
2023-03-03T13:36:12.780Z,31.90
2023-03-03T13:38:42.637Z,35.00
2023-03-03T13:41:32.151Z,38.20
2023-03-03T13:44:01.870Z,38.70
2023-03-03T13:47:01.622Z,38.20
2023-03-03T13:49:29.352Z,29.30
2023-03-03T13:52:15.228Z,30.00
2023-03-03T13:55:14.839Z,38.80
2023-03-03T13:58:24.959Z,32.70
2023-03-03T14:01:04.567Z,33.40
2023-03-03T14:03:44.748Z,34.90
2023-03-03T14:06:21.741Z,31.10
2023-03-03T14:09:08.243Z,28.60
2023-03-03T14:12:02.161Z,36.90
2023-03-03T14:14:45.032Z,36.00
2023-03-03T14:17:16.592Z,36.80
2023-03-03T14:19:48.436Z,32.90
2023-03-03T14:22:30.133Z,29.20
2023-03-03T14:25:01.851Z,29.20
2023-03-03T14:27:35.454Z,38.50
2023-03-03T14:33:00.595Z,43.40
2023-03-03T14:35:44.024Z,29.80
2023-03-03T14:38:16.554Z,28.10
2023-03-03T14:40:46.565Z,33.70
2023-03-03T14:43:26.619Z,38.50
2023-03-03T14:45:55.108Z,32.70
2023-03-03T14:48:26.056Z,40.50
2023-03-03T14:51:04.533Z,35.20
2023-03-03T14:53:42.888Z,34.40
2023-03-03T14:56:34.302Z,26.70
2023-03-03T14:59:18.427Z,34.00
2023-03-03T15:01:47.047Z,36.30
2023-03-03T15:04:20.898Z,34.00
2023-03-03T15:06:51.347Z,37.40
2023-03-03T15:09:43.218Z,33.60
2023-03-03T15:12:37.942Z,36.40
2023-03-03T15:15:18.414Z,32.10
2023-03-03T15:17:54.392Z,36.00
2023-03-03T15:20:54.047Z,34.30
2023-03-03T15:23:40.485Z,34.80
2023-03-03T15:26:16.871Z,32.40
2023-03-03T15:29:24.844Z,32.60
2023-03-03T15:31:52.520Z,39.70
2023-03-03T15:34:23.995Z,32.70
2023-03-03T15:37:23.631Z,27.90
2023-03-03T15:40:23.406Z,36.80
2023-03-03T15:43:10.309Z,38.00
2023-03-03T15:45:47.164Z,32.50
2023-03-03T15:48:36.716Z,43.00
2023-03-03T15:51:23.167Z,39.00
2023-03-03T15:54:06.822Z,30.90
2023-03-03T15:56:40.527Z,47.10
2023-03-03T15:59:27.324Z,32.50
2023-03-03T16:02:26.926Z,39.20
2023-03-03T16:04:57.756Z,35.20
2023-03-03T16:07:28.453Z,34.60
2023-03-03T16:10:18.678Z,40.40
2023-03-03T16:12:52.318Z,37.90
2023-03-03T16:15:24.338Z,31.60
2023-03-03T16:18:08.693Z,52.20
2023-03-03T16:20:52.146Z,43.20
2023-03-03T16:23:31.063Z,38.50
2023-03-03T16:26:41.216Z,37.00
2023-03-03T16:29:31.325Z,37.00
2023-03-03T16:32:16.242Z,46.10
2023-03-03T16:34:59.899Z,32.20
2023-03-03T16:37:34.587Z,35.70
2023-03-03T16:40:18.346Z,42.10
2023-03-03T16:45:26.742Z,37.90
2023-03-03T16:47:57.087Z,38.60
2023-03-03T16:50:39.739Z,34.90
2023-03-03T16:53:39.492Z,34.30
2023-03-03T16:56:11.571Z,38.40
2023-03-03T16:59:01.336Z,51.20
2023-03-03T17:01:44.936Z,46.40
2023-03-03T17:04:24.401Z,57.40
2023-03-03T17:07:02.893Z,40.40
2023-03-03T17:09:46.602Z,55.30
2023-03-03T17:12:38.756Z,48.20
2023-03-03T17:15:36.009Z,41.80
2023-03-03T17:18:12.878Z,77.60
2023-03-03T17:21:01.342Z,40.90
2023-03-03T17:23:42.791Z,89.80
2023-03-03T17:26:37.120Z,70.50
2023-03-03T17:29:36.915Z,36.80
2023-03-03T17:32:20.379Z,52.80
2023-03-03T17:35:02.048Z,40.50
2023-03-03T17:38:02.302Z,45.80
2023-03-03T17:40:40.538Z,31.10
2023-03-03T17:43:40.297Z,31.90
2023-03-03T17:46:46.713Z,37.90
2023-03-03T17:49:20.235Z,38.00
2023-03-03T17:54:35.053Z,43.20
2023-03-03T17:57:05.534Z,39.60
2023-03-03T18:00:05.208Z,37.40
2023-03-03T18:03:04.887Z,40.60
2023-03-03T18:05:48.662Z,43.90
2023-03-03T18:08:25.825Z,39.40
2023-03-03T18:11:09.559Z,51.00
2023-03-03T18:16:35.721Z,39.50
2023-03-03T18:19:23.776Z,50.20
2023-03-03T18:21:57.768Z,37.50
2023-03-03T18:24:25.420Z,48.50
2023-03-03T18:26:56.329Z,49.80
2023-03-03T18:29:29.549Z,44.20
2023-03-03T18:31:57.317Z,52.70
2023-03-03T18:34:29.585Z,43.80
2023-03-03T18:37:02.181Z,43.30
2023-03-03T18:39:37.613Z,39.30
2023-03-03T18:42:12.388Z,47.90
2023-03-03T18:44:40.188Z,42.50
2023-03-03T18:47:08.485Z,41.00
2023-03-03T18:49:59.307Z,40.80
2023-03-03T18:52:32.882Z,42.50
2023-03-03T18:57:35.424Z,42.40
2023-03-03T19:00:24.205Z,37.00
2023-03-03T19:02:57.021Z,37.60
2023-03-03T19:05:37.177Z,37.70
2023-03-03T19:08:22.345Z,51.50
2023-03-03T19:10:58.975Z,38.30
2023-03-03T19:13:32.793Z,46.60
2023-03-03T19:16:05.128Z,42.40
2023-03-03T19:18:48.944Z,45.40
2023-03-03T19:21:26.332Z,38.10
2023-03-03T19:24:02.228Z,45.10
2023-03-03T19:27:01.901Z,42.70
2023-03-03T19:29:46.596Z,43.20
2023-03-03T19:32:34.440Z,41.40
2023-03-03T19:35:27.095Z,44.40
2023-03-03T19:38:00.772Z,44.00
2023-03-03T19:41:00.690Z,46.30
2023-03-03T19:43:34.723Z,47.80
2023-03-03T19:46:24.909Z,58.30
2023-03-03T19:49:11.643Z,64.70
2023-03-03T19:52:11.266Z,44.10
2023-03-03T19:54:54.897Z,54.40
2023-03-03T19:57:48.802Z,61.70
2023-03-03T20:00:37.658Z,48.70
2023-03-03T20:03:21.277Z,62.50
2023-03-03T20:06:07.824Z,48.60
2023-03-03T20:09:06.493Z,63.40
2023-03-03T20:11:50.155Z,49.50
2023-03-03T20:14:51.874Z,65.00
2023-03-03T20:17:45.835Z,58.00
2023-03-03T20:20:32.188Z,56.30
2023-03-03T20:23:18.847Z,70.60
2023-03-03T20:25:51.569Z,53.90
2023-03-03T20:28:33.121Z,47.90
2023-03-03T20:31:06.888Z,41.60
2023-03-03T20:33:51.595Z,69.50
2023-03-03T20:36:37.683Z,56.80
2023-03-03T20:39:27.672Z,56.80
2023-03-03T20:42:11.510Z,43.40
2023-03-03T20:45:09.674Z,45.00
2023-03-03T20:47:56.496Z,44.10
2023-03-03T20:50:37.090Z,53.10
2023-03-03T20:53:20.748Z,42.30
2023-03-03T20:55:51.280Z,48.10
2023-03-03T20:58:37.747Z,43.20
2023-03-03T21:01:12.967Z,46.50
2023-03-03T21:03:44.786Z,50.50
2023-03-03T21:06:15.696Z,43.30
2023-03-03T21:08:59.307Z,54.60
2023-03-03T21:11:29.868Z,44.10
2023-03-03T21:13:59.232Z,55.60
2023-03-03T21:16:26.976Z,39.80
2023-03-03T21:19:11.139Z,48.50
2023-03-03T21:21:42.124Z,42.00
2023-03-03T21:24:15.056Z,47.60
2023-03-03T21:26:51.933Z,50.10
2023-03-03T21:29:26.233Z,45.20
2023-03-03T21:32:02.606Z,45.20
2023-03-03T21:34:37.049Z,41.60
2023-03-03T21:37:25.973Z,46.50
2023-03-03T21:40:14.373Z,47.70
2023-03-03T21:42:44.294Z,41.10
2023-03-03T21:45:15.220Z,43.10
2023-03-03T21:47:43.027Z,43.10
2023-03-03T21:50:11.541Z,50.70
2023-03-03T21:52:39.684Z,45.40
2023-03-03T21:55:08.012Z,48.20
2023-03-03T21:57:35.730Z,44.20
2023-03-03T22:00:05.988Z,45.20
2023-03-03T22:02:36.400Z,50.20
2023-03-03T22:05:07.399Z,40.40
2023-03-03T22:07:35.290Z,47.80
2023-03-03T22:10:03.545Z,49.70
2023-03-03T22:12:31.245Z,52.30
2023-03-03T22:14:59.023Z,50.30
2023-03-03T22:17:28.033Z,46.90
2023-03-03T22:19:55.785Z,54.50
2023-03-03T22:22:24.370Z,49.80
2023-03-03T22:24:53.651Z,49.80
2023-03-03T22:27:21.400Z,39.70
2023-03-03T22:29:49.149Z,46.00
2023-03-03T22:32:16.904Z,51.10
2023-03-03T22:34:44.889Z,50.10
2023-03-03T22:37:12.627Z,50.00
2023-03-03T22:39:40.367Z,47.20
2023-03-03T22:42:08.134Z,53.50
2023-03-03T22:44:35.897Z,52.90
2023-03-03T22:47:03.896Z,50.60
2023-03-03T22:49:31.739Z,54.80
2023-03-03T22:52:00.818Z,50.50
2023-03-03T22:54:28.552Z,56.00
2023-03-03T22:56:56.314Z,55.60
2023-03-03T22:59:24.038Z,55.20
2023-03-03T23:01:51.742Z,59.90
2023-03-03T23:04:19.505Z,50.10
2023-03-03T23:06:47.263Z,56.20
2023-03-03T23:09:15.270Z,43.30
2023-03-03T23:11:43.032Z,49.90
2023-03-03T23:14:10.752Z,74.90
2023-03-03T23:16:38.455Z,42.50
2023-03-03T23:19:06.233Z,86.00
2023-03-03T23:21:33.986Z,69.70
2023-03-03T23:24:01.690Z,44.90
2023-03-03T23:26:30.173Z,50.10
2023-03-03T23:28:57.884Z,46.60
2023-03-03T23:31:26.218Z,52.90
2023-03-03T23:33:53.940Z,54.20
2023-03-03T23:36:21.706Z,43.60
2023-03-03T23:38:49.414Z,49.70
2023-03-03T23:41:17.120Z,62.20
2023-03-03T23:43:44.967Z,47.40
2023-03-03T23:46:12.808Z,38.50
2023-03-03T23:48:40.635Z,46.30
2023-03-03T23:51:08.626Z,44.30
2023-03-03T23:53:36.370Z,33.90
2023-03-03T23:56:04.627Z,36.30
2023-03-03T23:58:32.374Z,43.90
